• Join FlightAware (Why Join?)
  • Login
  • US Flag 
08:53AM EDT


 

Airport Tracker/Info


-or-


 

Live Flight TrackerFlight Track Log ✈ EJA929 ✈ 18-Jul-2013 ✈ KTEB - 36U

Flight Track Log - Related Links

Times and Time Zones

All times are in EDT time to prevent confusion due to time zone crossing. See the EJA929 flight status page for this flight to view local times or setup timezone preferences in your user account.

Time Position Orientation Groundspeed Altitude Reporting Facility
EDT Latitude Longitude Course Direction KTS MPH feet Rate Location/Type
02:08PM 40.8167 -74.1333 282° West 220 253 1,500  Level New York TRACON
02:09PM 40.8167 -74.2167 270° West 217 250 2,900 1,860 Climbing New York TRACON
02:10PM 40.8167 -74.3000 270° West 242 278 5,300 2,340 Climbing New York TRACON
02:11PM 40.8500 -74.3667 303° West 265 305 7,600 2,100 Climbing New York TRACON
02:12PM 40.9167 -74.3833 349° North 281 323 9,400 1,980 Climbing New York TRACON
02:13PM 41.0000 -74.4167 343° North 298 343 11,400 1,620 Climbing New York TRACON
02:14PM 41.0588 -75.4494 282° West  Level Estimated
02:15PM 41.1689 -74.5111 337° Northwest 320 368 14,600  Level New York Center
02:16PM 41.2550 -74.5603 337° Northwest 331 381 16,200 1,500 Climbing New York Center
02:17PM 41.3189 -74.6467 315° West 326 375 17,600 1,320 Climbing New York Center
02:18PM 41.3697 -74.7408 306° West 336 387 18,900 1,380 Climbing New York Center
02:19PM 41.4325 -74.8525 307° West 341 392 20,500 1,440 Climbing New York Center
02:20PM 41.4936 -74.9586 308° West 352 405 21,900 1,320 Climbing New York Center
02:21PM 41.5542 -75.0650 307° West 352 405 23,200 1,320 Climbing New York Center
02:22PM 41.6147 -75.1714 307° West 359 413 24,600 1,380 Climbing New York Center
02:23PM 41.6794 -75.2814 308° West 370 426 26,000 1,440 Climbing New York Center
02:24PM 41.7267 -75.4094 296° West 380 437 27,500 1,440 Climbing New York Center
02:25PM 41.7583 -75.5508 287° West 380 437 28,900 1,500 Climbing New York Center
02:26PM 41.7903 -75.6867 288° West 394 453 30,500 1,380 Climbing New York Center
02:27PM 41.8239 -75.8283 288° West 394 453 31,700 1,080 Climbing New York Center
02:28PM 41.8572 -75.9756 287° West 406 467 32,700 960 Climbing New York Center
02:29PM 41.8919 -76.1286 287° West 418 481 33,700 960 Climbing New York Center
02:30PM 41.9286 -76.2850 288° West 428 493 34,700 1,020 Climbing New York Center
02:31PM 41.9628 -76.4442 286° West 439 505 35,800 1,020 Climbing New York Center
02:32PM 41.9986 -76.6064 287° West 449 517 36,800 780 Climbing New York Center
02:34PM 42.0681 -76.9047 288° West 448 516 38,000 420 Climbing Cleveland Center
02:35PM 42.1192 -77.0725 292° West 458 527 38,000  Level Cleveland Center
02:36PM 42.1986 -77.2225 306° West 480 552 38,000  Level Cleveland Center
02:37PM 42.2625 -77.3453 305° West 488 562 38,000  Level Cleveland Center
02:38PM 42.3483 -77.5094 305° West 493 567 38,000  Level Cleveland Center
02:39PM 42.4253 -77.6633 304° West 498 573 38,000  Level Cleveland Center
02:40PM 42.5003 -77.8233 302° West 503 579 38,000  Level Cleveland Center
02:41PM 42.5439 -78.0017 288° West 490 564 38,000  Level Cleveland Center
02:42PM 42.5667 -78.1897 279° West 495 570 38,000  Level Cleveland Center
02:43PM 42.5872 -78.3750 279° West 506 582 38,000  Level Cleveland Center
02:44PM 42.6053 -78.5692 277° West 506 582 38,100 300 Climbing Cleveland Center
02:45PM 42.6250 -78.7489 279° West 511 588 38,700 540 Climbing Cleveland Center
02:46PM 42.6444 -78.9375 278° West 504 580 39,200 480 Climbing Cleveland Center
02:47PM 42.6594 -79.1208 276° West 499 574 39,700 360 Climbing Cleveland Center
02:48PM 42.6803 -79.3094 279° West 504 580 40,000 120 Climbing Cleveland Center
02:49PM 42.6989 -79.4928 278° West 499 574 40,000  Level Cleveland Center
02:50PM 42.7131 -79.6789 276° West 499 574 40,000  Level Cleveland Center
02:51PM 42.7311 -79.8653 278° West 499 574 40,000  Level Cleveland Center
02:52PM 42.7467 -80.0742 276° West 499 574 40,000  Level Cleveland Center
02:53PM 42.7642 -80.2664 277° West 499 574 40,000  Level Cleveland Center
02:54PM 42.7811 -80.4503 277° West 499 574 40,000  Level Cleveland Center
02:55PM 42.7936 -80.6425 275° West 499 574 40,000  Level Cleveland Center
02:56PM 42.8100 -80.8239 277° West 499 574 40,000  Level Cleveland Center
02:57PM 42.8261 -81.0136 277° West 504 580 40,000  Level Cleveland Center
02:58PM 42.8378 -81.2003 275° West 498 573 40,000  Level Cleveland Center
02:59PM 42.8533 -81.3875 277° West 507 583 40,000  Level Cleveland Center
03:00PM 42.8664 -81.5747 275° West 501 577 40,000  Level Cleveland Center
03:01PM 42.8814 -81.7589 276° West 501 577 40,000  Level Cleveland Center
03:02PM 42.8919 -81.9433 275° West 496 571 40,000  Level Cleveland Center
03:03PM 42.9061 -82.1336 276° West 501 577 40,000  Level Cleveland Center
03:04PM 42.9203 -82.3211 276° West 501 577 40,000  Level Cleveland Center
03:05PM 42.9317 -82.5086 275° West 501 577 40,000  Level Cleveland Center
03:06PM 42.9453 -82.6961 276° West 501 577 40,000  Level Cleveland Center
03:07PM 42.9561 -82.8839 275° West 501 577 40,000  Level Cleveland Center
03:08PM 42.9689 -83.0744 275° West 501 577 40,000  Level Cleveland Center
03:09PM 42.9792 -83.2622 274° West 501 577 40,000  Level Cleveland Center
03:10PM 42.9914 -83.4528 275° West 501 577 40,000  Level Cleveland Center
03:11PM 43.0031 -83.6436 275° West 501 577 40,000  Level Cleveland Center
03:12PM 43.0125 -83.8317 274° West 501 577 40,000  Level Cleveland Center
03:13PM 43.0217 -84.0194 274° West 501 577 40,000  Level Cleveland Center
03:14PM 43.0311 -84.1933 274° West 509 586 40,000  Level Cleveland Center
03:15PM 43.0408 -84.4042 274° West 509 586 40,000  Level Cleveland Center
03:16PM 43.0511 -84.5925 274° West 509 586 40,000  Level Cleveland Center
03:17PM 43.0592 -84.7806 273° West 499 574 40,000  Level Cleveland Center
03:18PM 43.0667 -84.9717 273° West 504 580 40,000  Level Cleveland Center
03:19PM 43.0803 -85.2203 274° West 502 578 40,000 120 Level Chicago Center
03:21PM 43.0886 -85.4106 273° West 503 579 40,300 540 Climbing Chicago Center
03:22PM 43.0958 -85.5900 273° West 495 570 41,200 960 Climbing Chicago Center
03:23PM 43.1042 -85.8081 273° West 480 552 42,400 840 Climbing Chicago Center
03:24PM 43.1106 -85.9889 273° West 476 548 43,000 240 Climbing Chicago Center
03:25PM 43.1164 -86.1689 273° West 474 545 43,000  Level Chicago Center
03:26PM 43.1219 -86.3525 272° West 480 552 43,000  Level Chicago Center
03:27PM 43.1286 -86.5350 273° West 480 552 43,000  Level Chicago Center
03:28PM 43.1347 -86.7403 272° West 482 555 43,000  Level Chicago Center
03:29PM 43.1392 -86.9244 272° West 483 556 43,000  Level Chicago Center
03:30PM 43.1439 -87.1083 272° West 483 556 43,000  Level Chicago Center
03:31PM 43.1489 -87.2928 272° West 484 557 43,000  Level Chicago Center
03:32PM 43.1536 -87.5081 272° West 483 556 43,000  Level Chicago Center
03:33PM 43.1581 -87.6942 272° West 487 560 43,000  Level Chicago Center
03:34PM 43.1608 -87.8800 271° West 487 560 43,000  Level Chicago Center
03:35PM 43.1636 -88.0664 271° West 487 560 43,000  Level Chicago Center
03:36PM 43.1664 -88.2528 271° West 487 560 43,000  Level Chicago Center
03:37PM 43.1683 -88.4419 271° West 491 565 43,000  Level Chicago Center
03:38PM 43.1719 -88.6633 271° West 491 565 43,000  Level Chicago Center
03:39PM 43.1742 -88.8522 271° West 492 566 43,000  Level Chicago Center
03:40PM 43.1772 -89.0403 271° West 493 567 43,000  Level Chicago Center
03:41PM 43.1789 -89.2281 271° West 491 565 43,000  Level Chicago Center
03:42PM 43.1808 -89.4153 271° West 490 564 43,000  Level Chicago Center
03:43PM 43.1789 -89.6011 269° West 490 564 43,000  Level Chicago Center
03:44PM 43.1800 -89.8203 270° West 491 565 43,000  Level Chicago Center
03:45PM 43.1803 -90.0064 270° West 490 564 43,000  Level Chicago Center
03:46PM 43.1806 -90.1925 270° West 489 563 43,000  Level Chicago Center
03:47PM 43.1797 -90.3933 270° West 489 563 43,000  Level Chicago Center
03:48PM 43.1792 -90.5792 270° West 493 567 43,000  Level Chicago Center
03:49PM 43.1786 -90.7625 270° West 489 563 43,000  Level Chicago Center
03:50PM 43.1783 -90.9467 270° West 490 564 43,000  Level Minneapolis Center
03:51PM 43.1772 -91.1306 270° West 491 565 43,000  Level Minneapolis Center
03:52PM 43.1767 -91.3144 270° West 491 565 43,000  Level Minneapolis Center
03:53PM 43.1756 -91.4614 269° West 491 565 43,000  Level Minneapolis Center
03:55PM 43.1708 -91.7181 269° West 491 565 43,000  Level Minneapolis Center
03:56PM 43.1686 -91.9039 269° West 495 570 43,000  Level Minneapolis Center
03:57PM 43.1656 -92.0517 268° West 495 570 43,000  Level Minneapolis Center
03:58PM 43.1619 -92.2328 268° West 489 563 43,000  Level Minneapolis Center
03:59PM 43.1572 -92.4556 268° West 494 568 43,000  Level Minneapolis Center
04:00PM 43.1511 -92.6792 268° West 498 573 43,000  Level Minneapolis Center
04:01PM 43.1481 -92.8272 268° West 493 567 43,000  Level Minneapolis Center
04:02PM 43.1422 -93.0481 268° West 492 566 43,000  Level Minneapolis Center
04:03PM 43.1367 -93.2328 268° West 491 565 43,000  Level Minneapolis Center
04:04PM 43.1317 -93.4558 268° West 492 566 43,000  Level Minneapolis Center
04:05PM 43.1256 -93.6400 267° West 492 566 43,000  Level Minneapolis Center
04:06PM 43.1194 -93.8253 267° West 492 566 43,000  Level Minneapolis Center
04:07PM 43.1136 -94.0094 268° West 490 564 43,000  Level Minneapolis Center
04:08PM 43.1053 -94.2319 267° West 492 566 43,000  Level Minneapolis Center
04:09PM 43.0992 -94.4031 267° West 490 564 43,000  Level Minneapolis Center
04:10PM 43.0914 -94.5897 267° West 490 564 43,000  Level Minneapolis Center
04:11PM 43.0872 -94.7356 268° West 484 557 43,000  Level Minneapolis Center
04:12PM 43.0758 -94.9947 267° West 487 560 43,000  Level Minneapolis Center
04:13PM 43.0669 -95.1836 266° West 493 567 43,000  Level Minneapolis Center
04:14PM 43.0594 -95.3694 267° West 490 564 43,000  Level Minneapolis Center
04:15PM 43.0494 -95.5556 266° West 491 565 43,000  Level Minneapolis Center
04:16PM 43.0411 -95.7428 267° West 492 566 43,000  Level Minneapolis Center
04:17PM 43.0317 -95.9308 266° West 495 570 43,000  Level Minneapolis Center
04:18PM 43.0200 -96.1550 266° West 493 567 43,000  Level Minneapolis Center
04:19PM 43.0094 -96.3408 266° West 492 566 43,000  Level Minneapolis Center
04:20PM 42.9992 -96.5283 266° West 493 567 43,000  Level Minneapolis Center
04:21PM 42.9881 -96.7139 265° West 492 566 43,000  Level Minneapolis Center
04:23PM 42.9769 -96.9008 265° West 494 568 43,000  Level Minneapolis Center
04:24PM 42.9633 -97.1253 265° West 494 568 43,000  Level Minneapolis Center
04:25PM 42.9497 -97.3489 265° West 494 568 43,000  Level Minneapolis Center
04:26PM 42.9403 -97.4964 265° West 490 564 43,000  Level Minneapolis Center
04:27PM 42.9253 -97.7203 265° West 493 567 43,000  Level Minneapolis Center
04:28PM 42.9128 -97.9067 265° West 496 571 43,000  Level Minneapolis Center
04:29PM 42.8961 -98.1278 264° West 492 566 43,000  Level Minneapolis Center
04:30PM 42.8839 -98.3150 265° West 493 567 43,000  Level Minneapolis Center
04:31PM 42.8686 -98.5350 265° West 489 563 43,000  Level Minneapolis Center
04:32PM 42.8539 -98.7203 264° West 492 566 43,000  Level Minneapolis Center
04:33PM 42.8392 -98.9058 264° West 493 567 43,000  Level Minneapolis Center
04:34PM 42.8253 -99.0886 264° West 489 563 43,000  Level Minneapolis Center
04:35PM 42.8108 -99.2725 264° West 489 563 43,000  Level Minneapolis Center
04:36PM 42.7953 -99.4575 264° West 493 567 43,000  Level Minneapolis Center
04:37PM 42.7772 -99.6794 264° West 494 568 43,000  Level Minneapolis Center
04:38PM 42.7600 -99.8636 263° West 492 566 43,000  Level Minneapolis Center
04:39PM 42.7444 -100.0461 263° West 489 563 43,000  Level Minneapolis Center
04:40PM 42.7333 -100.1694 263° West 493 567 43,000  Level Denver Center
04:41PM 42.7164 -100.3611 263° West 491 565 43,000  Level Denver Center
04:42PM 42.6978 -100.5653 263° West 488 562 43,000  Level Denver Center
04:43PM 42.6814 -100.7425 263° West 492 566 43,000  Level Denver Center
04:44PM 42.6617 -100.9467 263° West 490 564 43,000  Level Denver Center
04:45PM 42.6453 -101.1211 263° West 488 562 43,000  Level Denver Center
04:46PM 42.6242 -101.3267 262° West 492 566 43,000  Level Denver Center
04:47PM 42.6069 -101.5014 262° West 491 565 43,000  Level Denver Center
04:48PM 42.5869 -101.7047 262° West 489 563 43,000  Level Denver Center
04:49PM 42.5672 -101.8761 261° West 491 565 43,000  Level Denver Center
04:50PM 42.5461 -102.0800 262° West 491 565 43,000  Level Denver Center
04:52PM 42.5286 -102.2553 262° West 491 565 43,000  Level Denver Center
04:53PM 42.5072 -102.4586 262° West 490 564 43,000  Level Denver Center
04:54PM 42.4878 -102.6325 261° West 487 560 43,000  Level Denver Center
04:55PM 42.4636 -102.8372 261° West 492 566 43,000  Level Denver Center
04:56PM 42.4450 -103.0103 262° West 487 560 43,000  Level Denver Center
04:57PM 42.4203 -103.2128 261° West 487 560 43,000  Level Denver Center
04:58PM 42.4003 -103.3856 261° West 486 559 43,000  Level Denver Center
04:59PM 42.3767 -103.5867 261° West 485 558 43,000  Level Denver Center
05:00PM 42.3553 -103.7608 261° West 488 562 43,000  Level Denver Center
05:01PM 42.3336 -103.9350 261° West 489 563 43,000  Level Denver Center
05:02PM 42.3094 -104.1369 261° West 487 560 43,000  Level Denver Center
05:03PM 42.2864 -104.3122 260° West 492 566 43,000  Level Denver Center
05:04PM 42.2603 -104.5156 260° West 490 564 43,000  Level Denver Center
05:05PM 42.2381 -104.6894 260° West 488 562 43,000  Level Denver Center
05:06PM 42.2122 -104.8908 260° West 485 558 43,000  Level Denver Center
05:07PM 42.1894 -105.0642 260° West 488 562 43,000  Level Denver Center
05:08PM 42.1669 -105.2342 260° West 482 555 43,000  Level Denver Center
05:09PM 42.1397 -105.4347 260° West 485 558 43,000  Level Denver Center
05:10PM 42.1161 -105.6044 259° West 481 554 43,000  Level Denver Center
05:11PM 42.0872 -105.8042 259° West 483 556 43,000  Level Denver Center
05:12PM 42.0639 -105.9744 260° West 483 556 43,000  Level Denver Center
05:13PM 42.0353 -106.1731 259° West 484 557 43,000  Level Denver Center
05:14PM 42.0114 -106.3439 259° West 485 558 43,000  Level Denver Center
05:15PM 41.9842 -106.5364 259° West 485 558 43,000  Level Denver Center
05:16PM 41.9581 -106.7044 258° West 481 554 43,000  Level Denver Center
05:17PM 41.9289 -106.9022 259° West 484 557 43,000  Level Denver Center
05:18PM 41.9036 -107.0703 259° West 480 552 43,000  Level Denver Center
05:19PM 41.8731 -107.2664 258° West 481 554 43,000  Level Denver Center
05:20PM 41.8475 -107.4364 259° West 483 556 43,000  Level Denver Center
05:22PM 41.8172 -107.6317 258° West 480 552 43,000  Level Denver Center
05:23PM 41.7900 -107.7992 258° West 482 555 43,000  Level Denver Center
05:24PM 41.7592 -107.9925 258° West 477 549 43,000  Level Denver Center
05:25PM 41.7325 -108.1617 258° West 485 558 43,000  Level Denver Center
05:26PM 41.7006 -108.3533 257° West 474 545 43,000  Level Denver Center
05:27PM 41.6739 -108.5214 258° West 481 554 43,000  Level Denver Center
05:28PM 41.6414 -108.7153 257° West 481 554 43,000  Level Denver Center
05:29PM 41.6136 -108.8808 257° West 481 554 43,000  Level Denver Center
05:30PM 41.5522 -109.1175 251° West 477 549 43,000  Level Salt Lake Center
05:31PM 41.4728 -109.2889 238° Southwest 497 572 43,000 -300 Level Salt Lake Center
05:32PM 41.4067 -109.4294 238° Southwest 479 551 42,500 -1,560 Descending Salt Lake Center
05:33PM 41.3311 -109.5964 239° Southwest 474 545 39,800 -2,640 Descending Salt Lake Center
05:34PM 41.2669 -109.7392 239° Southwest 472 543 37,100 -3,000 Descending Salt Lake Center
05:35PM 41.1911 -109.9050 239° Southwest 470 541 33,700 -3,180 Descending Salt Lake Center
05:36PM 41.1264 -110.0472 239° Southwest 471 542 30,600 -2,880 Descending Salt Lake Center
05:37PM 41.0464 -110.2225 239° Southwest 494 568 27,800 -2,520 Descending Salt Lake Center
05:38PM 40.9769 -110.3728 239° Southwest 501 577 25,400 -2,640 Descending Salt Lake Center
05:40PM 40.9036 -110.5306 238° Southwest 457 526 22,300 -2,520 Descending Salt Lake Center
05:41PM 40.8442 -110.6589 239° Southwest 414 476 20,200 -1,800 Descending Salt Lake Center
05:42PM 40.7922 -110.7728 239° Southwest 370 426 18,700 -1,980 Descending Salt Lake Center
05:43PM 40.7378 -110.8919 239° Southwest 376 433 16,200 -1,860 Descending Salt Lake Center
05:44PM 40.6828 -111.0133 239° Southwest 383 441 14,900 -720 Descending Salt Lake Center
05:45PM 40.6339 -111.1217 239° Southwest 353 406 14,800 -540 Descending Salt Lake Center
05:46PM 40.5808 -111.2433 240° Southwest 326 375 13,800 -2,160 Descending Salt Lake Center
05:47PM 40.5394 -111.3397 241° Southwest 314 361 10,400 -3,300 Descending Salt Lake Center